sensor_id;sensor_type;location;lat;lon;timestamp;P1;durP1;ratioP1;P2;durP2;ratioP2
59302;SDS011;45074;52.764;6.896;2023-08-21T00:00:07;7.80;;;3.58;;
59302;SDS011;45074;52.764;6.896;2023-08-21T00:02:33;9.93;;;3.72;;
59302;SDS011;45074;52.764;6.896;2023-08-21T00:04:59;9.07;;;3.70;;
59302;SDS011;45074;52.764;6.896;2023-08-21T00:07:25;8.07;;;3.70;;
59302;SDS011;45074;52.764;6.896;2023-08-21T00:09:51;9.07;;;3.38;;
59302;SDS011;45074;52.764;6.896;2023-08-21T00:12:17;8.70;;;3.67;;
59302;SDS011;45074;52.764;6.896;2023-08-21T00:14:43;8.85;;;3.50;;
59302;SDS011;45074;52.764;6.896;2023-08-21T00:17:09;7.47;;;3.28;;
59302;SDS011;45074;52.764;6.896;2023-08-21T00:19:35;7.88;;;3.53;;
59302;SDS011;45074;52.764;6.896;2023-08-21T00:22:01;8.48;;;3.38;;
59302;SDS011;45074;52.764;6.896;2023-08-21T00:24:27;6.88;;;3.28;;
59302;SDS011;45074;52.764;6.896;2023-08-21T00:26:53;7.15;;;3.25;;
59302;SDS011;45074;52.764;6.896;2023-08-21T00:29:19;8.52;;;3.28;;
59302;SDS011;45074;52.764;6.896;2023-08-21T00:31:45;8.20;;;3.10;;
59302;SDS011;45074;52.764;6.896;2023-08-21T00:34:11;8.35;;;3.30;;
59302;SDS011;45074;52.764;6.896;2023-08-21T00:36:37;6.45;;;3.17;;
59302;SDS011;45074;52.764;6.896;2023-08-21T00:39:03;6.75;;;2.83;;
59302;SDS011;45074;52.764;6.896;2023-08-21T00:41:29;8.18;;;3.60;;
59302;SDS011;45074;52.764;6.896;2023-08-21T00:43:56;8.38;;;3.30;;
59302;SDS011;45074;52.764;6.896;2023-08-21T00:46:22;7.20;;;3.40;;
59302;SDS011;45074;52.764;6.896;2023-08-21T00:48:48;10.07;;;4.38;;
59302;SDS011;45074;52.764;6.896;2023-08-21T00:51:14;9.50;;;5.70;;
59302;SDS011;45074;52.764;6.896;2023-08-21T00:53:41;13.93;;;6.68;;
59302;SDS011;45074;52.764;6.896;2023-08-21T00:56:07;9.90;;;4.97;;
59302;SDS011;45074;52.764;6.896;2023-08-21T00:58:33;8.65;;;5.15;;
59302;SDS011;45074;52.764;6.896;2023-08-21T01:00:59;9.88;;;5.30;;
59302;SDS011;45074;52.764;6.896;2023-08-21T01:03:25;11.60;;;6.03;;
59302;SDS011;45074;52.764;6.896;2023-08-21T01:05:52;10.75;;;7.00;;
59302;SDS011;45074;52.764;6.896;2023-08-21T01:08:22;10.50;;;7.05;;
59302;SDS011;45074;52.764;6.896;2023-08-21T01:13:31;10.88;;;6.53;;
59302;SDS011;45074;52.764;6.896;2023-08-21T01:16:08;12.13;;;6.10;;
59302;SDS011;45074;52.764;6.896;2023-08-21T01:18:34;9.00;;;6.15;;
59302;SDS011;45074;52.764;6.896;2023-08-21T01:21:02;9.38;;;5.72;;
59302;SDS011;45074;52.764;6.896;2023-08-21T01:23:33;9.55;;;5.60;;
59302;SDS011;45074;52.764;6.896;2023-08-21T01:26:02;10.55;;;5.68;;
59302;SDS011;45074;52.764;6.896;2023-08-21T01:28:29;9.48;;;5.55;;
59302;SDS011;45074;52.764;6.896;2023-08-21T01:31:05;9.50;;;5.27;;
59302;SDS011;45074;52.764;6.896;2023-08-21T01:33:48;9.75;;;4.70;;
59302;SDS011;45074;52.764;6.896;2023-08-21T01:36:18;8.25;;;4.50;;
59302;SDS011;45074;52.764;6.896;2023-08-21T01:38:44;11.02;;;4.97;;
59302;SDS011;45074;52.764;6.896;2023-08-21T01:41:11;6.53;;;3.90;;
59302;SDS011;45074;52.764;6.896;2023-08-21T01:43:37;7.18;;;4.15;;
59302;SDS011;45074;52.764;6.896;2023-08-21T01:46:03;9.27;;;4.35;;
59302;SDS011;45074;52.764;6.896;2023-08-21T01:48:29;7.43;;;3.83;;
59302;SDS011;45074;52.764;6.896;2023-08-21T01:50:55;7.43;;;3.90;;
59302;SDS011;45074;52.764;6.896;2023-08-21T01:53:21;7.57;;;3.85;;
59302;SDS011;45074;52.764;6.896;2023-08-21T01:55:47;7.30;;;3.90;;
59302;SDS011;45074;52.764;6.896;2023-08-21T01:58:13;7.80;;;3.80;;
59302;SDS011;45074;52.764;6.896;2023-08-21T02:00:39;8.55;;;3.53;;
59302;SDS011;45074;52.764;6.896;2023-08-21T02:03:05;6.93;;;3.70;;
59302;SDS011;45074;52.764;6.896;2023-08-21T02:05:36;8.15;;;3.50;;
59302;SDS011;45074;52.764;6.896;2023-08-21T02:08:03;7.50;;;3.55;;
59302;SDS011;45074;52.764;6.896;2023-08-21T02:10:29;7.13;;;3.83;;
59302;SDS011;45074;52.764;6.896;2023-08-21T02:12:55;8.73;;;3.85;;
59302;SDS011;45074;52.764;6.896;2023-08-21T02:15:21;6.35;;;3.40;;
59302;SDS011;45074;52.764;6.896;2023-08-21T02:17:47;7.07;;;3.67;;
59302;SDS011;45074;52.764;6.896;2023-08-21T02:20:13;8.05;;;3.85;;
59302;SDS011;45074;52.764;6.896;2023-08-21T02:22:39;6.63;;;3.35;;
59302;SDS011;45074;52.764;6.896;2023-08-21T02:25:05;8.50;;;3.75;;
59302;SDS011;45074;52.764;6.896;2023-08-21T02:27:31;8.50;;;4.00;;
59302;SDS011;45074;52.764;6.896;2023-08-21T02:29:57;8.52;;;3.70;;
59302;SDS011;45074;52.764;6.896;2023-08-21T02:32:23;8.75;;;3.42;;
59302;SDS011;45074;52.764;6.896;2023-08-21T02:34:49;8.20;;;3.65;;
59302;SDS011;45074;52.764;6.896;2023-08-21T02:37:15;8.27;;;3.40;;
59302;SDS011;45074;52.764;6.896;2023-08-21T02:39:41;8.23;;;3.40;;
59302;SDS011;45074;52.764;6.896;2023-08-21T02:42:07;8.95;;;3.35;;
59302;SDS011;45074;52.764;6.896;2023-08-21T02:44:33;7.60;;;3.30;;
59302;SDS011;45074;52.764;6.896;2023-08-21T02:46:59;8.50;;;3.35;;
59302;SDS011;45074;52.764;6.896;2023-08-21T02:49:25;7.07;;;3.03;;
59302;SDS011;45074;52.764;6.896;2023-08-21T02:51:51;6.63;;;3.03;;
59302;SDS011;45074;52.764;6.896;2023-08-21T02:54:17;7.88;;;2.65;;
59302;SDS011;45074;52.764;6.896;2023-08-21T02:56:43;7.05;;;2.92;;
59302;SDS011;45074;52.764;6.896;2023-08-21T02:59:09;8.90;;;3.22;;
59302;SDS011;45074;52.764;6.896;2023-08-21T03:01:35;8.57;;;3.13;;
59302;SDS011;45074;52.764;6.896;2023-08-21T03:04:01;6.90;;;3.10;;
59302;SDS011;45074;52.764;6.896;2023-08-21T03:06:27;8.35;;;2.88;;
59302;SDS011;45074;52.764;6.896;2023-08-21T03:08:53;7.18;;;3.10;;
59302;SDS011;45074;52.764;6.896;2023-08-21T03:11:19;6.03;;;2.90;;
59302;SDS011;45074;52.764;6.896;2023-08-21T03:13:45;6.93;;;3.00;;
59302;SDS011;45074;52.764;6.896;2023-08-21T03:16:11;6.15;;;2.90;;
59302;SDS011;45074;52.764;6.896;2023-08-21T03:18:53;7.53;;;3.08;;
59302;SDS011;45074;52.764;6.896;2023-08-21T03:21:20;5.63;;;2.88;;
59302;SDS011;45074;52.764;6.896;2023-08-21T03:23:49;6.47;;;2.63;;
59302;SDS011;45074;52.764;6.896;2023-08-21T03:26:16;6.95;;;2.78;;
59302;SDS011;45074;52.764;6.896;2023-08-21T03:28:42;6.35;;;2.65;;
59302;SDS011;45074;52.764;6.896;2023-08-21T03:31:08;7.30;;;3.10;;
59302;SDS011;45074;52.764;6.896;2023-08-21T03:33:34;6.93;;;2.80;;
59302;SDS011;45074;52.764;6.896;2023-08-21T03:36:00;5.32;;;2.78;;
59302;SDS011;45074;52.764;6.896;2023-08-21T03:38:26;8.40;;;2.70;;
59302;SDS011;45074;52.764;6.896;2023-08-21T03:40:52;7.32;;;3.13;;
59302;SDS011;45074;52.764;6.896;2023-08-21T03:43:18;7.00;;;2.65;;
59302;SDS011;45074;52.764;6.896;2023-08-21T03:45:44;7.47;;;2.60;;
59302;SDS011;45074;52.764;6.896;2023-08-21T03:48:09;5.38;;;2.60;;
59302;SDS011;45074;52.764;6.896;2023-08-21T03:50:35;8.65;;;2.60;;
59302;SDS011;45074;52.764;6.896;2023-08-21T03:53:01;5.00;;;2.08;;
59302;SDS011;45074;52.764;6.896;2023-08-21T03:55:27;6.30;;;2.55;;
59302;SDS011;45074;52.764;6.896;2023-08-21T03:57:53;4.82;;;2.38;;
59302;SDS011;45074;52.764;6.896;2023-08-21T04:00:19;5.50;;;2.40;;
59302;SDS011;45074;52.764;6.896;2023-08-21T04:02:45;6.45;;;2.47;;
59302;SDS011;45074;52.764;6.896;2023-08-21T04:05:12;6.38;;;2.47;;
59302;SDS011;45074;52.764;6.896;2023-08-21T04:07:38;4.45;;;2.08;;
59302;SDS011;45074;52.764;6.896;2023-08-21T04:10:04;5.85;;;2.53;;
59302;SDS011;45074;52.764;6.896;2023-08-21T04:12:30;6.65;;;2.58;;
59302;SDS011;45074;52.764;6.896;2023-08-21T04:14:56;4.05;;;2.20;;
59302;SDS011;45074;52.764;6.896;2023-08-21T04:17:23;6.05;;;2.83;;
59302;SDS011;45074;52.764;6.896;2023-08-21T04:19:49;5.60;;;2.47;;
59302;SDS011;45074;52.764;6.896;2023-08-21T04:22:15;5.70;;;2.33;;
59302;SDS011;45074;52.764;6.896;2023-08-21T04:24:41;5.40;;;2.55;;
59302;SDS011;45074;52.764;6.896;2023-08-21T04:27:07;5.78;;;2.60;;
59302;SDS011;45074;52.764;6.896;2023-08-21T04:29:37;5.38;;;2.33;;
59302;SDS011;45074;52.764;6.896;2023-08-21T04:32:03;7.72;;;2.42;;
59302;SDS011;45074;52.764;6.896;2023-08-21T04:34:29;5.70;;;2.20;;
59302;SDS011;45074;52.764;6.896;2023-08-21T04:36:55;5.43;;;2.22;;
59302;SDS011;45074;52.764;6.896;2023-08-21T04:39:21;5.80;;;2.45;;
59302;SDS011;45074;52.764;6.896;2023-08-21T04:41:47;5.03;;;2.20;;
59302;SDS011;45074;52.764;6.896;2023-08-21T04:44:13;4.85;;;2.30;;
59302;SDS011;45074;52.764;6.896;2023-08-21T04:46:39;4.85;;;2.17;;
59302;SDS011;45074;52.764;6.896;2023-08-21T04:49:05;5.75;;;2.55;;
59302;SDS011;45074;52.764;6.896;2023-08-21T04:51:31;5.18;;;2.42;;
59302;SDS011;45074;52.764;6.896;2023-08-21T04:53:58;6.82;;;2.75;;
59302;SDS011;45074;52.764;6.896;2023-08-21T04:56:24;6.25;;;2.38;;
59302;SDS011;45074;52.764;6.896;2023-08-21T04:58:51;5.05;;;2.10;;
59302;SDS011;45074;52.764;6.896;2023-08-21T05:01:17;5.13;;;2.25;;
59302;SDS011;45074;52.764;6.896;2023-08-21T05:03:43;5.78;;;2.55;;
59302;SDS011;45074;52.764;6.896;2023-08-21T05:06:09;5.03;;;2.33;;
59302;SDS011;45074;52.764;6.896;2023-08-21T05:08:35;5.40;;;2.40;;
59302;SDS011;45074;52.764;6.896;2023-08-21T05:11:01;5.82;;;2.70;;
59302;SDS011;45074;52.764;6.896;2023-08-21T05:13:27;8.07;;;2.60;;
59302;SDS011;45074;52.764;6.896;2023-08-21T05:15:54;6.00;;;2.38;;
59302;SDS011;45074;52.764;6.896;2023-08-21T05:18:21;7.80;;;2.33;;
59302;SDS011;45074;52.764;6.896;2023-08-21T05:20:47;6.50;;;2.38;;
59302;SDS011;45074;52.764;6.896;2023-08-21T05:23:13;6.90;;;2.50;;
59302;SDS011;45074;52.764;6.896;2023-08-21T05:25:39;4.80;;;2.05;;
59302;SDS011;45074;52.764;6.896;2023-08-21T05:28:06;5.75;;;2.17;;
59302;SDS011;45074;52.764;6.896;2023-08-21T05:30:32;5.38;;;2.30;;
59302;SDS011;45074;52.764;6.896;2023-08-21T05:32:58;5.63;;;2.15;;
59302;SDS011;45074;52.764;6.896;2023-08-21T05:35:24;7.50;;;2.40;;
59302;SDS011;45074;52.764;6.896;2023-08-21T05:37:50;6.47;;;2.83;;
59302;SDS011;45074;52.764;6.896;2023-08-21T05:40:16;6.30;;;2.65;;
59302;SDS011;45074;52.764;6.896;2023-08-21T05:42:42;5.97;;;2.42;;
59302;SDS011;45074;52.764;6.896;2023-08-21T05:45:08;6.00;;;2.10;;
59302;SDS011;45074;52.764;6.896;2023-08-21T05:47:34;5.07;;;2.03;;
59302;SDS011;45074;52.764;6.896;2023-08-21T05:50:00;7.32;;;2.72;;
59302;SDS011;45074;52.764;6.896;2023-08-21T05:52:26;7.45;;;2.85;;
59302;SDS011;45074;52.764;6.896;2023-08-21T05:54:52;6.00;;;2.75;;
59302;SDS011;45074;52.764;6.896;2023-08-21T05:57:18;7.10;;;2.55;;
59302;SDS011;45074;52.764;6.896;2023-08-21T05:59:45;7.70;;;3.08;;
59302;SDS011;45074;52.764;6.896;2023-08-21T06:02:11;7.13;;;2.97;;
59302;SDS011;45074;52.764;6.896;2023-08-21T06:04:42;7.22;;;2.80;;
59302;SDS011;45074;52.764;6.896;2023-08-21T06:07:08;6.50;;;2.90;;
59302;SDS011;45074;52.764;6.896;2023-08-21T06:09:34;11.20;;;4.13;;
59302;SDS011;45074;52.764;6.896;2023-08-21T06:12:01;7.78;;;3.15;;
59302;SDS011;45074;52.764;6.896;2023-08-21T06:14:27;8.43;;;2.70;;
59302;SDS011;45074;52.764;6.896;2023-08-21T06:17:00;8.82;;;2.85;;
59302;SDS011;45074;52.764;6.896;2023-08-21T06:19:27;5.55;;;2.35;;
59302;SDS011;45074;52.764;6.896;2023-08-21T06:21:54;7.80;;;2.80;;
59302;SDS011;45074;52.764;6.896;2023-08-21T06:24:20;7.60;;;2.47;;
59302;SDS011;45074;52.764;6.896;2023-08-21T06:26:46;7.80;;;2.47;;
59302;SDS011;45074;52.764;6.896;2023-08-21T06:29:12;7.95;;;2.70;;
59302;SDS011;45074;52.764;6.896;2023-08-21T06:31:38;6.32;;;2.40;;
59302;SDS011;45074;52.764;6.896;2023-08-21T06:34:04;7.28;;;2.10;;
59302;SDS011;45074;52.764;6.896;2023-08-21T06:36:30;9.80;;;2.72;;
59302;SDS011;45074;52.764;6.896;2023-08-21T06:38:56;9.68;;;2.20;;
59302;SDS011;45074;52.764;6.896;2023-08-21T06:41:22;8.80;;;2.30;;
59302;SDS011;45074;52.764;6.896;2023-08-21T06:43:50;11.20;;;2.58;;
59302;SDS011;45074;52.764;6.896;2023-08-21T06:46:16;10.98;;;2.20;;
59302;SDS011;45074;52.764;6.896;2023-08-21T06:48:42;9.02;;;1.98;;
59302;SDS011;45074;52.764;6.896;2023-08-21T06:51:09;11.35;;;2.30;;
59302;SDS011;45074;52.764;6.896;2023-08-21T06:53:35;9.57;;;2.30;;
59302;SDS011;45074;52.764;6.896;2023-08-21T06:56:01;9.32;;;2.58;;
59302;SDS011;45074;52.764;6.896;2023-08-21T06:58:27;7.63;;;2.30;;
59302;SDS011;45074;52.764;6.896;2023-08-21T07:00:54;6.45;;;2.22;;
59302;SDS011;45074;52.764;6.896;2023-08-21T07:03:21;6.63;;;2.40;;
59302;SDS011;45074;52.764;6.896;2023-08-21T07:05:53;7.22;;;2.50;;
59302;SDS011;45074;52.764;6.896;2023-08-21T07:08:20;8.35;;;2.17;;
59302;SDS011;45074;52.764;6.896;2023-08-21T07:10:46;6.53;;;2.40;;
59302;SDS011;45074;52.764;6.896;2023-08-21T07:13:12;5.57;;;2.30;;
59302;SDS011;45074;52.764;6.896;2023-08-21T07:15:38;7.00;;;2.47;;
59302;SDS011;45074;52.764;6.896;2023-08-21T07:18:03;8.35;;;2.10;;
59302;SDS011;45074;52.764;6.896;2023-08-21T07:20:29;7.03;;;2.10;;
59302;SDS011;45074;52.764;6.896;2023-08-21T07:22:56;9.88;;;2.58;;
59302;SDS011;45074;52.764;6.896;2023-08-21T07:25:22;8.20;;;2.25;;
59302;SDS011;45074;52.764;6.896;2023-08-21T07:27:48;7.47;;;2.45;;
59302;SDS011;45074;52.764;6.896;2023-08-21T07:30:15;6.53;;;2.10;;
59302;SDS011;45074;52.764;6.896;2023-08-21T07:32:42;7.75;;;2.30;;
59302;SDS011;45074;52.764;6.896;2023-08-21T07:35:08;8.13;;;2.00;;
59302;SDS011;45074;52.764;6.896;2023-08-21T07:37:35;7.18;;;2.10;;
59302;SDS011;45074;52.764;6.896;2023-08-21T07:40:01;5.25;;;1.88;;
59302;SDS011;45074;52.764;6.896;2023-08-21T07:42:28;7.72;;;1.90;;
59302;SDS011;45074;52.764;6.896;2023-08-21T07:44:54;5.57;;;1.63;;
59302;SDS011;45074;52.764;6.896;2023-08-21T07:47:19;7.05;;;2.00;;
59302;SDS011;45074;52.764;6.896;2023-08-21T07:49:45;5.80;;;1.98;;
59302;SDS011;45074;52.764;6.896;2023-08-21T07:52:10;6.80;;;2.13;;
59302;SDS011;45074;52.764;6.896;2023-08-21T07:54:36;6.53;;;1.85;;
59302;SDS011;45074;52.764;6.896;2023-08-21T07:57:02;6.13;;;1.50;;
59302;SDS011;45074;52.764;6.896;2023-08-21T07:59:29;6.18;;;1.60;;
59302;SDS011;45074;52.764;6.896;2023-08-21T08:01:54;7.50;;;2.10;;
59302;SDS011;45074;52.764;6.896;2023-08-21T08:04:20;5.53;;;1.50;;
59302;SDS011;45074;52.764;6.896;2023-08-21T08:06:47;5.32;;;1.50;;
59302;SDS011;45074;52.764;6.896;2023-08-21T08:09:12;6.07;;;1.52;;
59302;SDS011;45074;52.764;6.896;2023-08-21T08:11:38;8.23;;;1.58;;
59302;SDS011;45074;52.764;6.896;2023-08-21T08:14:04;7.43;;;1.80;;
59302;SDS011;45074;52.764;6.896;2023-08-21T08:16:29;5.25;;;1.40;;
59302;SDS011;45074;52.764;6.896;2023-08-21T08:18:55;6.75;;;1.63;;
59302;SDS011;45074;52.764;6.896;2023-08-21T08:21:21;9.25;;;1.55;;
59302;SDS011;45074;52.764;6.896;2023-08-21T08:23:46;5.80;;;1.42;;
59302;SDS011;45074;52.764;6.896;2023-08-21T08:26:13;3.97;;;1.30;;
59302;SDS011;45074;52.764;6.896;2023-08-21T08:28:39;5.13;;;1.45;;
59302;SDS011;45074;52.764;6.896;2023-08-21T08:31:05;4.70;;;1.50;;
59302;SDS011;45074;52.764;6.896;2023-08-21T08:33:31;6.03;;;1.40;;
59302;SDS011;45074;52.764;6.896;2023-08-21T08:35:57;3.42;;;1.08;;
59302;SDS011;45074;52.764;6.896;2023-08-21T08:38:23;5.93;;;1.40;;
59302;SDS011;45074;52.764;6.896;2023-08-21T08:40:49;4.60;;;1.45;;
59302;SDS011;45074;52.764;6.896;2023-08-21T08:43:16;4.75;;;1.35;;
59302;SDS011;45074;52.764;6.896;2023-08-21T08:45:43;4.95;;;1.58;;
59302;SDS011;45074;52.764;6.896;2023-08-21T08:48:11;5.28;;;1.30;;
59302;SDS011;45074;52.764;6.896;2023-08-21T08:50:38;2.90;;;1.25;;
59302;SDS011;45074;52.764;6.896;2023-08-21T08:53:04;5.03;;;1.20;;
59302;SDS011;45074;52.764;6.896;2023-08-21T08:55:33;5.15;;;1.08;;
59302;SDS011;45074;52.764;6.896;2023-08-21T08:57:59;3.50;;;1.30;;
59302;SDS011;45074;52.764;6.896;2023-08-21T09:00:25;4.57;;;1.40;;
59302;SDS011;45074;52.764;6.896;2023-08-21T09:02:51;5.20;;;1.25;;
59302;SDS011;45074;52.764;6.896;2023-08-21T09:05:17;4.63;;;1.10;;
59302;SDS011;45074;52.764;6.896;2023-08-21T09:07:43;4.40;;;1.20;;
59302;SDS011;45074;52.764;6.896;2023-08-21T09:10:13;5.50;;;1.20;;
59302;SDS011;45074;52.764;6.896;2023-08-21T09:12:45;3.55;;;1.10;;
59302;SDS011;45074;52.764;6.896;2023-08-21T09:15:11;4.32;;;1.40;;
59302;SDS011;45074;52.764;6.896;2023-08-21T09:17:37;3.33;;;1.10;;
59302;SDS011;45074;52.764;6.896;2023-08-21T09:20:04;3.88;;;1.33;;
59302;SDS011;45074;52.764;6.896;2023-08-21T09:22:30;5.60;;;1.50;;
59302;SDS011;45074;52.764;6.896;2023-08-21T09:25:01;5.07;;;1.35;;
59302;SDS011;45074;52.764;6.896;2023-08-21T09:27:32;4.97;;;1.17;;
59302;SDS011;45074;52.764;6.896;2023-08-21T09:29:58;4.78;;;1.05;;
59302;SDS011;45074;52.764;6.896;2023-08-21T09:32:25;4.22;;;1.20;;
59302;SDS011;45074;52.764;6.896;2023-08-21T09:34:51;5.35;;;1.20;;
59302;SDS011;45074;52.764;6.896;2023-08-21T09:37:17;4.05;;;1.00;;
59302;SDS011;45074;52.764;6.896;2023-08-21T09:39:43;5.78;;;1.30;;
59302;SDS011;45074;52.764;6.896;2023-08-21T09:42:11;3.60;;;1.10;;
59302;SDS011;45074;52.764;6.896;2023-08-21T09:44:38;3.92;;;1.20;;
59302;SDS011;45074;52.764;6.896;2023-08-21T09:47:07;3.38;;;0.90;;
59302;SDS011;45074;52.764;6.896;2023-08-21T09:49:34;5.00;;;1.10;;
59302;SDS011;45074;52.764;6.896;2023-08-21T09:52:00;4.40;;;1.00;;
59302;SDS011;45074;52.764;6.896;2023-08-21T09:54:27;3.90;;;1.20;;
59302;SDS011;45074;52.764;6.896;2023-08-21T09:56:54;4.93;;;1.20;;
59302;SDS011;45074;52.764;6.896;2023-08-21T09:59:20;4.75;;;1.17;;
59302;SDS011;45074;52.764;6.896;2023-08-21T10:01:47;5.15;;;1.27;;
59302;SDS011;45074;52.764;6.896;2023-08-21T10:04:16;5.07;;;0.95;;
59302;SDS011;45074;52.764;6.896;2023-08-21T10:06:43;3.88;;;0.95;;
59302;SDS011;45074;52.764;6.896;2023-08-21T10:09:10;3.30;;;0.88;;
59302;SDS011;45074;52.764;6.896;2023-08-21T10:11:36;3.38;;;0.90;;
59302;SDS011;45074;52.764;6.896;2023-08-21T10:14:02;5.70;;;1.10;;
59302;SDS011;45074;52.764;6.896;2023-08-21T10:16:29;2.78;;;0.77;;
59302;SDS011;45074;52.764;6.896;2023-08-21T10:18:55;4.57;;;0.98;;
59302;SDS011;45074;52.764;6.896;2023-08-21T10:21:22;4.75;;;0.77;;
59302;SDS011;45074;52.764;6.896;2023-08-21T10:23:51;2.17;;;0.80;;
59302;SDS011;45074;52.764;6.896;2023-08-21T10:26:20;3.05;;;0.80;;
59302;SDS011;45074;52.764;6.896;2023-08-21T10:28:50;2.80;;;0.80;;
59302;SDS011;45074;52.764;6.896;2023-08-21T10:34:12;3.42;;;0.82;;
59302;SDS011;45074;52.764;6.896;2023-08-21T10:39:17;4.03;;;0.90;;
59302;SDS011;45074;52.764;6.896;2023-08-21T10:44:35;3.33;;;0.95;;
59302;SDS011;45074;52.764;6.896;2023-08-21T10:47:17;3.38;;;1.00;;
59302;SDS011;45074;52.764;6.896;2023-08-21T10:49:44;3.35;;;0.90;;
59302;SDS011;45074;52.764;6.896;2023-08-21T10:52:10;4.07;;;1.00;;
59302;SDS011;45074;52.764;6.896;2023-08-21T10:54:43;2.97;;;0.77;;
59302;SDS011;45074;52.764;6.896;2023-08-21T10:57:09;3.65;;;0.98;;
59302;SDS011;45074;52.764;6.896;2023-08-21T10:59:35;3.95;;;1.23;;
59302;SDS011;45074;52.764;6.896;2023-08-21T11:02:01;3.67;;;1.10;;
59302;SDS011;45074;52.764;6.896;2023-08-21T11:04:28;3.83;;;1.10;;
59302;SDS011;45074;52.764;6.896;2023-08-21T11:06:54;3.67;;;1.00;;
59302;SDS011;45074;52.764;6.896;2023-08-21T11:09:22;3.25;;;1.02;;
59302;SDS011;45074;52.764;6.896;2023-08-21T11:11:48;7.25;;;2.20;;
59302;SDS011;45074;52.764;6.896;2023-08-21T11:14:14;3.25;;;1.00;;
59302;SDS011;45074;52.764;6.896;2023-08-21T11:16:40;7.00;;;1.10;;
59302;SDS011;45074;52.764;6.896;2023-08-21T11:19:06;3.25;;;1.10;;
59302;SDS011;45074;52.764;6.896;2023-08-21T11:21:32;3.47;;;1.00;;
59302;SDS011;45074;52.764;6.896;2023-08-21T11:23:59;4.18;;;1.20;;
59302;SDS011;45074;52.764;6.896;2023-08-21T11:26:25;7.15;;;1.35;;
59302;SDS011;45074;52.764;6.896;2023-08-21T11:28:51;3.60;;;1.10;;
59302;SDS011;45074;52.764;6.896;2023-08-21T11:31:17;3.83;;;1.38;;
59302;SDS011;45074;52.764;6.896;2023-08-21T11:33:49;3.92;;;1.08;;
59302;SDS011;45074;52.764;6.896;2023-08-21T11:36:15;4.28;;;1.00;;
59302;SDS011;45074;52.764;6.896;2023-08-21T11:38:41;5.18;;;1.23;;
59302;SDS011;45074;52.764;6.896;2023-08-21T11:41:07;3.42;;;1.20;;
59302;SDS011;45074;52.764;6.896;2023-08-21T11:43:40;2.92;;;1.20;;
59302;SDS011;45074;52.764;6.896;2023-08-21T11:46:07;4.25;;;1.20;;
59302;SDS011;45074;52.764;6.896;2023-08-21T11:48:34;3.55;;;1.10;;
59302;SDS011;45074;52.764;6.896;2023-08-21T11:51:01;2.47;;;0.93;;
59302;SDS011;45074;52.764;6.896;2023-08-21T11:53:31;4.28;;;1.25;;
59302;SDS011;45074;52.764;6.896;2023-08-21T11:55:58;3.17;;;1.10;;
59302;SDS011;45074;52.764;6.896;2023-08-21T11:58:26;3.55;;;0.90;;
59302;SDS011;45074;52.764;6.896;2023-08-21T12:00:52;3.38;;;1.08;;
59302;SDS011;45074;52.764;6.896;2023-08-21T12:03:18;3.92;;;1.20;;
59302;SDS011;45074;52.764;6.896;2023-08-21T12:05:45;8.20;;;1.48;;
59302;SDS011;45074;52.764;6.896;2023-08-21T12:08:11;6.07;;;1.25;;
59302;SDS011;45074;52.764;6.896;2023-08-21T12:10:37;4.93;;;1.13;;
59302;SDS011;45074;52.764;6.896;2023-08-21T12:13:03;4.50;;;1.10;;
59302;SDS011;45074;52.764;6.896;2023-08-21T12:15:29;3.88;;;1.10;;
59302;SDS011;45074;52.764;6.896;2023-08-21T12:17:55;4.18;;;1.20;;
59302;SDS011;45074;52.764;6.896;2023-08-21T12:20:21;4.57;;;1.30;;
59302;SDS011;45074;52.764;6.896;2023-08-21T12:22:47;5.13;;;1.10;;
59302;SDS011;45074;52.764;6.896;2023-08-21T12:25:13;4.60;;;1.00;;
59302;SDS011;45074;52.764;6.896;2023-08-21T12:27:41;4.00;;;1.00;;
59302;SDS011;45074;52.764;6.896;2023-08-21T12:30:07;4.22;;;1.00;;
59302;SDS011;45074;52.764;6.896;2023-08-21T12:32:33;3.45;;;1.08;;
59302;SDS011;45074;52.764;6.896;2023-08-21T12:34:59;3.85;;;0.85;;
59302;SDS011;45074;52.764;6.896;2023-08-21T12:37:25;4.43;;;1.13;;
59302;SDS011;45074;52.764;6.896;2023-08-21T12:39:53;3.15;;;1.08;;
59302;SDS011;45074;52.764;6.896;2023-08-21T12:42:20;2.65;;;1.10;;
59302;SDS011;45074;52.764;6.896;2023-08-21T12:44:46;3.40;;;1.08;;
59302;SDS011;45074;52.764;6.896;2023-08-21T12:47:12;3.08;;;0.75;;
59302;SDS011;45074;52.764;6.896;2023-08-21T12:49:38;5.15;;;1.00;;
59302;SDS011;45074;52.764;6.896;2023-08-21T12:52:04;5.25;;;1.30;;
59302;SDS011;45074;52.764;6.896;2023-08-21T12:54:31;3.80;;;1.08;;
59302;SDS011;45074;52.764;6.896;2023-08-21T12:56:57;4.60;;;1.10;;
59302;SDS011;45074;52.764;6.896;2023-08-21T12:59:23;3.38;;;1.05;;
59302;SDS011;45074;52.764;6.896;2023-08-21T13:01:49;3.47;;;0.90;;
59302;SDS011;45074;52.764;6.896;2023-08-21T13:04:16;3.90;;;0.90;;
59302;SDS011;45074;52.764;6.896;2023-08-21T13:06:42;2.17;;;0.80;;
59302;SDS011;45074;52.764;6.896;2023-08-21T13:09:08;3.72;;;1.10;;
59302;SDS011;45074;52.764;6.896;2023-08-21T13:11:34;4.53;;;0.88;;
59302;SDS011;45074;52.764;6.896;2023-08-21T13:14:00;4.25;;;0.95;;
59302;SDS011;45074;52.764;6.896;2023-08-21T13:16:26;2.42;;;0.88;;
59302;SDS011;45074;52.764;6.896;2023-08-21T13:18:52;3.60;;;0.88;;
59302;SDS011;45074;52.764;6.896;2023-08-21T13:21:18;4.50;;;0.93;;
59302;SDS011;45074;52.764;6.896;2023-08-21T13:23:45;2.83;;;0.90;;
59302;SDS011;45074;52.764;6.896;2023-08-21T13:26:11;3.80;;;1.13;;
59302;SDS011;45074;52.764;6.896;2023-08-21T13:28:37;4.82;;;0.90;;
59302;SDS011;45074;52.764;6.896;2023-08-21T13:31:03;2.55;;;0.90;;
59302;SDS011;45074;52.764;6.896;2023-08-21T13:33:29;4.13;;;1.10;;
59302;SDS011;45074;52.764;6.896;2023-08-21T13:35:55;4.22;;;1.00;;
59302;SDS011;45074;52.764;6.896;2023-08-21T13:38:21;4.25;;;1.00;;
59302;SDS011;45074;52.764;6.896;2023-08-21T13:40:47;1.83;;;0.88;;
59302;SDS011;45074;52.764;6.896;2023-08-21T13:43:13;1.33;;;0.75;;
59302;SDS011;45074;52.764;6.896;2023-08-21T13:45:39;1.92;;;0.80;;
59302;SDS011;45074;52.764;6.896;2023-08-21T13:48:06;3.05;;;0.80;;
59302;SDS011;45074;52.764;6.896;2023-08-21T13:50:32;4.05;;;1.10;;
59302;SDS011;45074;52.764;6.896;2023-08-21T13:52:58;2.63;;;0.90;;
59302;SDS011;45074;52.764;6.896;2023-08-21T13:55:24;3.28;;;0.98;;
59302;SDS011;45074;52.764;6.896;2023-08-21T13:57:50;3.75;;;0.95;;
59302;SDS011;45074;52.764;6.896;2023-08-21T14:00:16;2.50;;;0.85;;
59302;SDS011;45074;52.764;6.896;2023-08-21T14:02:43;3.72;;;1.13;;
59302;SDS011;45074;52.764;6.896;2023-08-21T14:05:09;2.72;;;0.90;;
59302;SDS011;45074;52.764;6.896;2023-08-21T14:07:36;3.67;;;0.90;;
59302;SDS011;45074;52.764;6.896;2023-08-21T14:10:02;3.88;;;0.80;;
59302;SDS011;45074;52.764;6.896;2023-08-21T14:12:30;3.97;;;1.00;;
59302;SDS011;45074;52.764;6.896;2023-08-21T14:14:57;3.88;;;0.90;;
59302;SDS011;45074;52.764;6.896;2023-08-21T14:17:23;2.78;;;1.02;;
59302;SDS011;45074;52.764;6.896;2023-08-21T14:19:49;4.28;;;0.90;;
59302;SDS011;45074;52.764;6.896;2023-08-21T14:22:15;3.47;;;1.02;;
59302;SDS011;45074;52.764;6.896;2023-08-21T14:24:41;2.35;;;0.77;;
59302;SDS011;45074;52.764;6.896;2023-08-21T14:27:07;3.63;;;1.00;;
59302;SDS011;45074;52.764;6.896;2023-08-21T14:29:34;4.22;;;0.90;;
59302;SDS011;45074;52.764;6.896;2023-08-21T14:32:00;3.33;;;0.80;;
59302;SDS011;45074;52.764;6.896;2023-08-21T14:34:26;3.63;;;0.90;;
59302;SDS011;45074;52.764;6.896;2023-08-21T14:36:53;4.68;;;0.95;;
59302;SDS011;45074;52.764;6.896;2023-08-21T14:39:22;4.32;;;0.93;;
59302;SDS011;45074;52.764;6.896;2023-08-21T14:41:53;2.38;;;0.73;;
59302;SDS011;45074;52.764;6.896;2023-08-21T14:44:19;3.03;;;0.68;;
59302;SDS011;45074;52.764;6.896;2023-08-21T14:46:45;2.28;;;0.80;;
59302;SDS011;45074;52.764;6.896;2023-08-21T14:49:11;3.00;;;0.85;;
59302;SDS011;45074;52.764;6.896;2023-08-21T14:51:38;3.25;;;0.90;;
59302;SDS011;45074;52.764;6.896;2023-08-21T14:54:04;4.57;;;0.80;;